Terminal Aerodrome Forecast
Issued by NWS

Home | Current Version | Previous Version | Text Only | Print | Product List | Glossary On
Versions: 1 2 3 4 5 6 7 8 9 10 11 12 13 14
106
FTUS44 KTSA 221720
TAFRVS
TAF
KRVS 221720Z 2218/2318 05008KT 5SM BR OVC005
     FM221900 09005KT 4SM -SHRA VCTS OVC007CB
     FM230100 VRB03KT 4SM BR OVC007
     FM230800 VRB03KT 1SM BR OVC003=

USA.gov is the U.S. government's official web portal to all federal, state and local government web resources and services.